Prairieville, LA

10:53 PM CST on December 26, 2014 (GMT -0600)
Seven Oaks | Change Station
CLOSE
Current Station
Personal Weather Station
Location: Prairieville, LA
Elevation: 48 ft
Nearby Weather Stations
Active Advisory: Areal Flood Watch

Elev 48 ft 30.29 °N, 90.97 °W | Updated 1 second ago

Rain
Rain
58.0 °F
Feels Like 58.0 °F
N
1.5
Wind Variable Wind from NNW
Gusts 4.5 mph

Today
High -- | Low -- °F
--% Chance of Precip.
Yesterday
High -- | Low -- °F
Precip. -- in
6:58 AM 5:10 PM
Waxing Crescent, 32% visible
Pressure 30.12 in
Visibility 5.0 miles
Clouds Scattered Clouds 1100 ft
Overcast 1900 ft
Dew Point 56 °F
Humidity 93%
Rainfall 0.43 in
Snow Depth Not available.
UV 0 out of 12
Pollen 4.20 out of 12
Air Quality Not available.
Flu Activity Not available.
METAR KL38 270435Z AUTO 03003KT 5SM RA SCT011 OVC019 15/15 A3012 RMK AO2 P0007 T01510151

More Conditions Fewer Conditions

Pressure 30.12 in
Visibility 5.0 miles
Clouds Scattered Clouds 1100 ft
Overcast 1900 ft
Dew Point 56 °F
Humidity 93%
Rainfall 0.43 in
Snow Depth Not available.
UV 0 out of 12
Pollen 4.20 out of 12
Air Quality Not available.
Flu Activity Not available.
METAR KL38 270435Z AUTO 03003KT 5SM RA SCT011 OVC019 15/15 A3012 RMK AO2 P0007 T01510151

More Conditions Fewer Conditions

10-Day Weather Forecast

Almanac

Astronomy

Dec. 26, 2014 Rise Set
Actual Time
Civil Twilight
Nautical Twilight
Astronomical Twilight
Moon
Length of Visible Light
Length of Day
Tomorrow will be .
, % of the Moon is Illuminated

Today's Extremes

State Highs State Lows

Community

WunderPhotos

Upload Photos

1,780,847 photos uploaded!

WunderBlogs® & News

Nearby

Air Quality

  Air Quality AQ Index Pollutant
Not available.

Snow Depth

Station Depth Elevation

Earthquake Activity

City Distance Mag. Time & Date
Minimum magnitude displayed is 2.5.

Coastal Water Temperatures

Place Temperature

Nearby Weather Stations